Камери на живо
METAR for:LBGO (Gorna Orechovista Ar, LO, BG)
Text:LBGO 291130Z AUTO 27004KT 9999 -RA OVC005/// 02/02 Q1022 NOSIG
Temperature: 2.0°C ( 36°F)
Dewpoint: 2.0°C ( 36°F) [RH = 100%]
Pressure (altimeter):30.18 inches Hg (1022.0 mb)
Winds:from the W (270 degrees) at 5 MPH (4 knots; 2.1 m/s)
Visibility:6 or more sm (10+ km)
Ceiling:500 feet AGL
Clouds: overcast cloud deck at 500 feet AGL
Weather:-RA (light rain)

TAF for:LBGO (Gorna Orechovista Ar, LO, BG) issued at 1100 UTC 29 Nov 2022
Text:TAF LBGO 291100Z 2912/3012 VRB04KT 6000 RA BKN006 OVC015
Forecast period:1200 UTC 29 November 2022 to 1200 UTC 30 November 2022
Forecast type:FROM: standard forecast or significant change
Winds:variable direction winds at 5 MPH (4 knots; 2.1 m/s)
Visibility: 4 sm ( 6 km)
Ceiling:600 feet AGL
Clouds: broken clouds at 600 feet AGL, overcast cloud deck at 1500 feet AGL
Weather:RA (moderate rain)
Text:TEMPO 2916/3003 2000 SNRA BKN002 OVC010
Forecast period:1600 UTC 29 November 2022 to 0300 UTC 30 November 2022
Forecast type:TEMPORARY: The following changes expected for less than half the time period
Visibility: 1.24 sm ( 2.00 km)
Ceiling:200 feet AGL
Clouds: broken clouds at 200 feet AGL, overcast cloud deck at 1000 feet AGL
Weather:SN RA (moderate snow, moderate rain)